Etusivu
METAR-TAF:

METAR-TAF

Lentoasemat :

Karachi, Pakistan

Leveyspiiri: 24-54N, Pituuspiiri: 067-08E, korkeus merenpinnasta: 21 m

Tämänhetkinen sää

Tämä raportti tehtiin 32 minuuttia sitten, kello 07.55 UTC
Tuuli 10 kn lännestä/lounaasta
Lämpötila 31°C
Kosteus 55%
Ilmanpaine 1007 hPa
Näkyvyys: 6000 m
Hajanaisia pilviä 2000 ft:n korkeudessa

METAR: OPKC 200755Z 24010KT 6000 SCT020 31/21 Q1007 NOSIG

Aika: 13:27 (08:27 UTC)

Sääennuste

Tämä raportti tehtiin 4 tuntia ja 57 minuuttia sitten, kello 03.30 UTC
Ennuste voimassa 20. päivästä klo 06 UTC - 20. päivään klo 15 UTC
Tuuli 8 kn lännestä/lounaasta puuskistuen 18 kn:hen
Näkyvyys: 6000 m
Hajanaisia pilviä 2500 ft:n korkeudessa

TAF: OPKC 200330Z 2006/2015 24008G18KT 6000 SCT025

Säähavainnot ja -ennusteet yli 4000 lentoasemalta (METAR- ja TAF-raportit).

Käytössä olevat sääasemat on merkitty karttaan keltaisilla ja punaisilla pisteillä.

Aseta hiiri pisteen päälle nähdäksesi sääaseman nimen.

Klikkaa sitten nähdäksesi säähavainnot ja -ennusteet.

Kartan vaihtaminen: klikkaa mustalla rastilla varustettuja vihreitä pisteitä, niin voit zoomata sisään; viivalla varustettua vihreää pistettä, niin voit zoomata ulos tai vihreitä nuolia, niin pääset viereisille kartoille.


METAR-TAF: